• Join FlightAware (Why Join?)
  • Login
  • US Flag 
12:35AM EDT


 

Airport Tracker/Info


-or-


 

Live Flight TrackerFlight Track Log ✈ UAL4550 ✈ 13-Apr-2013 ✈ KLEX - KIAH

Flight Track Log - Related Links

Times and Time Zones

All times are in EDT time to prevent confusion due to time zone crossing. See the UAL4550 flight status page for this flight to view local times or setup timezone preferences in your user account.

Time Position Orientation Groundspeed Altitude Reporting Facility
EDT Latitude Longitude Course Direction KTS MPH feet Rate Location/Type
05:24PM 38.0117 -84.6325 247° West 163 188 36,000  Level Indianapolis Center
05:25PM 37.9806 -84.6767 228° Southwest 205 236 5,100 -13,620 Descending Indianapolis Center
05:26PM 37.9508 -84.7561 245° Southwest 208 239 8,200 2,700 Climbing Indianapolis Center
05:27PM 37.9109 -84.9131 241° Southwest  Level FlightAware Approximate
05:27PM 37.9236 -84.8286 245° Southwest 225 259 10,700  Level Indianapolis Center
05:28PM 37.8656 -85.0150 241° Southwest  Level FlightAware Approximate
05:28PM 37.8883 -84.9156 243° Southwest 265 305 11,700  Level Indianapolis Center
05:29PM 37.8219 -85.1177 247° West  Level FlightAware Approximate
05:29PM 37.8489 -85.0128 243° Southwest 300 345 13,600  Level Indianapolis Center
05:30PM 37.8117 -85.1103 244° Southwest 308 354 15,300 1,620 Climbing Indianapolis Center
05:31PM 37.7731 -85.2083 244° Southwest 312 359 17,000 1,440 Climbing Indianapolis Center
05:32PM 37.7336 -85.3064 243° Southwest 312 359 18,300 1,500 Climbing Indianapolis Center
05:33PM 37.6850 -85.4250 243° Southwest 322 371 20,100 1,500 Climbing Indianapolis Center
05:34PM 37.6467 -85.5217 243° Southwest 321 369 21,400 1,440 Climbing Indianapolis Center
05:35PM 37.6047 -85.6272 243° Southwest 331 381 23,100 1,740 Climbing Indianapolis Center
05:37PM 37.5639 -85.7275 243° Southwest 322 371 25,000 1,680 Climbing Indianapolis Center
05:38PM 37.5244 -85.8256 243° Southwest 314 361 26,600 1,740 Climbing Indianapolis Center
05:39PM 37.4811 -85.9311 243° Southwest 305 351 28,600 1,800 Climbing Indianapolis Center
05:40PM 37.4442 -86.0244 244° Southwest 296 341 30,300 1,320 Climbing Indianapolis Center
05:41PM 37.4056 -86.1153 242° Southwest 294 338 31,400 960 Climbing Indianapolis Center
05:42PM 37.3592 -86.2317 243° Southwest 314 361 32,500 900 Climbing Memphis Center
05:43PM 37.3147 -86.3408 243° Southwest 321 369 33,500 900 Climbing Memphis Center
05:44PM 37.2722 -86.4419 242° Southwest 328 377 34,400 900 Climbing Memphis Center
05:45PM 37.2317 -86.5431 243° Southwest 328 377 35,400 720 Climbing Memphis Center
05:46PM 37.1889 -86.6439 242° Southwest 328 377 35,900 300 Climbing Memphis Center
05:47PM 37.1458 -86.7450 242° Southwest 334 384 36,000  Climbing Memphis Center
05:48PM 37.1031 -86.8508 243° Southwest 339 390 36,000  Level Memphis Center
05:49PM 37.0581 -86.9542 241° Southwest 339 390 36,000  Level Memphis Center
05:50PM 37.0150 -87.0575 242° Southwest 339 390 36,000  Level Memphis Center
05:51PM 36.9739 -87.1603 243° Southwest 332 382 36,000  Level Memphis Center
05:52PM 36.9267 -87.2661 241° Southwest 338 389 36,000  Level Memphis Center
05:53PM 36.8833 -87.3714 243° Southwest 345 397 36,000  Level Memphis Center
05:54PM 36.8358 -87.4794 241° Southwest 358 412 36,000  Level Memphis Center
05:55PM 36.7906 -87.5875 242° Southwest 358 412 36,000  Level Memphis Center
05:56PM 36.7508 -87.6794 242° Southwest 353 406 36,000  Level Memphis Center
05:57PM 36.6925 -87.7769 233° Southwest 353 406 36,000  Level Memphis Center
05:58PM 36.6339 -87.8642 230° Southwest 347 399 36,000  Level Memphis Center
05:59PM 36.5731 -87.9567 231° Southwest 347 399 36,000  Level Memphis Center
06:00PM 36.5144 -88.0461 231° Southwest 342 394 36,000  Level Memphis Center
06:01PM 36.4494 -88.1433 230° Southwest 336 387 36,000  Level Memphis Center
06:02PM 36.3906 -88.2300 230° Southwest 336 387 36,000  Level Memphis Center
06:03PM 36.3294 -88.3167 229° Southwest 336 387 36,000  Level Memphis Center
06:04PM 36.2703 -88.4083 231° Southwest 336 387 36,000  Level Memphis Center
06:05PM 36.2092 -88.4922 228° Southwest 336 387 36,000  Level Memphis Center
06:06PM 36.1561 -88.5731 231° Southwest 336 387 36,000  Level Memphis Center
06:07PM 36.0950 -88.6642 230° Southwest 336 387 36,000  Level Memphis Center
06:08PM 36.0336 -88.7528 229° Southwest 336 387 36,000  Level Memphis Center
06:09PM 35.9700 -88.8411 228° Southwest 336 387 36,000  Level Memphis Center
06:10PM 35.9086 -88.9319 230° Southwest 341 392 36,000  Level Memphis Center
06:11PM 35.8469 -89.0228 230° Southwest 347 399 36,000  Level Memphis Center
06:12PM 35.7833 -89.1133 229° Southwest 347 399 36,000  Level Memphis Center
06:13PM 35.7217 -89.2064 231° Southwest 352 405 36,000  Level Memphis Center
06:14PM 35.6578 -89.3044 231° Southwest 352 405 36,000  Level Memphis Center
06:15PM 35.5939 -89.3944 229° Southwest 352 405 36,000  Level Memphis Center
06:16PM 35.5319 -89.4844 230° Southwest 352 405 36,000  Level Memphis Center
06:17PM 35.4681 -89.5769 230° Southwest 357 411 36,000  Level Memphis Center
06:18PM 35.4058 -89.6667 230° Southwest 357 411 36,000  Level Memphis Center
06:19PM 35.3439 -89.7564 230° Southwest 357 411 36,000  Level Memphis Center
06:20PM 35.2794 -89.8458 229° Southwest 357 411 36,000  Level Memphis Center
06:21PM 35.2172 -89.9378 230° Southwest 357 411 36,000  Level Memphis Center
06:22PM 35.1531 -90.0269 229° Southwest 357 411 36,000  Level Memphis Center
06:23PM 35.0886 -90.1186 229° Southwest 357 411 36,000  Level Memphis Center
06:24PM 35.0261 -90.2075 229° Southwest 357 411 36,000  Level Memphis Center
06:25PM 34.9636 -90.2989 230° Southwest 357 411 36,000  Level Memphis Center
06:26PM 34.8967 -90.3875 227° Southwest 357 411 36,000  Level Memphis Center
06:27PM 34.8383 -90.4658 228° Southwest 357 411 36,000  Level Memphis Center
06:28PM 34.7756 -90.5544 229° Southwest 352 405 36,000  Level Memphis Center
06:29PM 34.7128 -90.6425 229° Southwest 357 411 36,000  Level Memphis Center
06:30PM 34.6500 -90.7308 229° Southwest 357 411 36,000  Level Memphis Center
06:31PM 34.5850 -90.8189 228° Southwest 357 411 36,000  Level Memphis Center
06:32PM 34.5222 -90.9042 228° Southwest 357 411 36,000  Level Memphis Center
06:33PM 34.4592 -90.9944 230° Southwest 357 411 36,000  Level Memphis Center
06:34PM 34.3897 -91.0869 228° Southwest 357 411 36,000  Level Memphis Center
06:35PM 34.3244 -91.1769 229° Southwest 357 411 36,000  Level Memphis Center
06:36PM 34.2614 -91.2619 228° Southwest 357 411 36,000  Level Memphis Center
06:37PM 34.1958 -91.3492 228° Southwest 357 411 36,000  Level Memphis Center
06:38PM 34.1325 -91.4386 229° Southwest 357 411 36,000  Level Memphis Center
06:39PM 34.0692 -91.5231 228° Southwest 357 411 36,000  Level Memphis Center
06:40PM 34.0036 -91.6125 229° Southwest 357 411 36,000  Level Memphis Center
06:41PM 33.9381 -91.6967 227° Southwest 357 411 36,000  Level Memphis Center
06:42PM 33.8808 -91.7858 232° Southwest 352 405 36,000  Level Memphis Center
06:43PM 33.8150 -91.8747 228° Southwest 352 405 36,000  Level Memphis Center
06:45PM 33.6622 -92.0483 223° Southwest 344 396 36,000  Level Fort Worth Center
06:46PM 33.5639 -92.0892 199° South 355 409 36,000  Level Fort Worth Center
06:47PM 33.4631 -92.1250 197° South 372 428 36,000  Level Fort Worth Center
06:48PM 33.3625 -92.1633 198° South 372 428 36,000  Level Fort Worth Center
06:49PM 33.2636 -92.1992 197° South 372 428 36,000  Level Fort Worth Center
06:50PM 33.1631 -92.2347 196° South 377 434 36,000  Level Fort Worth Center
06:51PM 33.0603 -92.2731 197° South 377 434 36,000  Level Fort Worth Center
06:52PM 32.9617 -92.3108 198° South 377 434 36,000  Level Fort Worth Center
06:54PM 32.7697 -92.3831 198° South 378 435 36,000  Level Houston Center
06:55PM 32.6689 -92.4219 198° South 383 441 36,000 -60 Level Houston Center
06:56PM 32.5522 -92.4631 197° South 381 438 35,900  Descending Houston Center
06:57PM 32.4525 -92.5014 198° South 378 435 36,000  Climbing Houston Center
06:58PM 32.3503 -92.5375 197° South 385 443 36,000  Level Houston Center
06:59PM 32.2503 -92.5747 197° South 379 436 36,000  Level Houston Center
07:00PM 32.1492 -92.6111 197° South 381 438 36,000  Level Houston Center
07:01PM 32.0475 -92.6497 198° South 386 444 36,000  Level Houston Center
07:02PM 31.9511 -92.6942 201° Southwest 377 434 36,000  Level Houston Center
07:03PM 31.8581 -92.7883 221° Southwest 368 423 36,000  Level Houston Center
07:04PM 31.7794 -92.8644 219° Southwest 367 422 36,000  Level Houston Center
07:05PM 31.7017 -92.9406 220° Southwest 366 421 36,000  Level Houston Center
07:06PM 31.6222 -93.0161 219° Southwest 369 425 36,000  Level Houston Center
07:07PM 31.5436 -93.0903 219° Southwest 365 420 36,000  Level Houston Center
07:08PM 31.4647 -93.1667 220° Southwest 367 422 36,000  Level Houston Center
07:09PM 31.3861 -93.2422 219° Southwest 367 422 36,000  Level Houston Center
07:10PM 31.2928 -93.3331 220° Southwest 365 420 36,000  Level Houston Center
07:11PM 31.2136 -93.4061 218° Southwest 364 419 36,000  Level Houston Center
07:13PM 31.1358 -93.4814 220° Southwest 364 419 36,000  Level Houston Center
07:14PM 31.0578 -93.5556 219° Southwest 364 419 36,000  Level Houston Center
07:15PM 30.9792 -93.6297 219° Southwest 364 419 36,000  Level Houston Center
07:16PM 30.9011 -93.7036 219° Southwest 364 419 36,000  Level Houston Center
07:17PM 30.8239 -93.7772 219° Southwest 361 415 36,000  Level Houston Center
07:18PM 30.7314 -93.8639 219° Southwest 359 413 36,000  Level Houston Center
07:19PM 30.6581 -93.9328 219° Southwest 347 399 36,000 -1,320 Level Houston Center
07:20PM 30.5892 -93.9983 219° Southwest 329 379 33,300 -4,320 Descending Houston Center
07:20PM 30.5328 -94.0511 219° Southwest 333 383 28,600 -6,300 Descending Houston Center
07:21PM 30.5167 -94.0681 222° Southwest 334 384 26,800 -7,320 Descending Houston Center
07:21PM 30.4808 -94.0992 217° Southwest 371 427 24,100 -6,420 Descending Houston Center
07:22PM 30.4344 -94.1439 220° Southwest 369 425 20,200 -5,220 Descending Houston Center
07:23PM 30.3544 -94.2169 218° Southwest 369 425 14,900 -5,100 Descending Houston Center
07:23PM 30.3231 -94.2464 219° Southwest 349 402 13,700 -2,640 Descending Houston Center
07:24PM 30.2847 -94.2831 220° Southwest 331 381 12,200 -1,680 Descending Houston Center
07:24PM 30.2539 -94.3111 218° Southwest 314 361 12,000 -840 Descending Houston Center
07:25PM 30.2047 -94.3597 221° Southwest 314 361 11,400 -840 Descending Houston Center
07:25PM 30.1925 -94.3919 246° West 310 357 11,100 -1,080 Descending Houston Center
07:26PM 30.1825 -94.4561 260° West 317 365 10,300 -660 Descending Houston Center
07:27PM 30.1661 -94.5492 259° West 323 372 10,000 -180 Descending Houston Center
07:28PM 30.1483 -94.6503 259° West 323 372 10,000  Level Houston Center
07:29PM 30.1283 -94.7708 259° West 321 369 10,000  Level Houston Center
07:30PM 30.1108 -94.8703 259° West 319 367 10,000  Level Houston Center
07:30PM 30.1058 -94.9083 261° West 321 369 10,000  Level Houston Center
07:31PM 30.1067 -94.9733 271° West 323 372 10,000 -120 Level Houston Center
07:31PM 30.1053 -95.0122 268° West 305 351 9,900 -840 Descending Houston Center
07:32PM 30.1067 -95.0667 272° West 297 342 9,200 -1,200 Descending Houston Center
07:32PM 30.1075 -95.1036 272° West 291 335 8,700 -1,260 Descending Houston Center
07:33PM 30.1072 -95.1578 270° West 287 330 7,900 -1,320 Descending Houston Center
07:33PM 30.1078 -95.1956 271° West 284 327 7,400 -1,320 Descending Houston Center
07:34PM 30.1075 -95.2478 270° West 283 326 6,600 -1,320 Descending Houston Center
07:34PM 30.1056 -95.2875 267° West 268 308 6,100 -600 Descending Houston Center
07:35PM 30.1081 -95.3317 274° West 270 311 6,000 -240 Descending Houston Center
07:35PM 30.1072 -95.3719 269° West 258 297 5,900 -1,020 Descending Houston Center
07:36PM 30.0986 -95.4275 260° West 255 293 5,000 -1,320 Descending Houston Center
07:36PM 30.0931 -95.4483 253° West 243 280 4,600 -1,200 Descending Houston Center
07:37PM 30.0819 -95.5006 256° West 242 278 3,800 -1,140 Descending Houston Center
07:37PM 30.0650 -95.5097 205° Southwest 205 236 3,500 -840 Descending Houston Center
07:38PM 30.0325 -95.5217 198° South 204 235 3,000 -420 Descending Houston Center
07:39PM 29.9961 -95.4975 150° Southeast 196 226 2,800 -600 Descending Houston Center
07:40PM 29.9939 -95.4453 93° East 175 201 1,800 -1,020 Descending Houston Center